Time;durP1;ratioP1;P1;durP2;ratioP2;P2;SDS_P1;SDS_P2;PMS_P1;PMS_P2;Temp;Humidity;BMP_temperature;BMP_pressure;BME280_temperature;BME280_humidity;BME280_pressure;Samples;Min_cycle;Max_cycle;Signal;HPM_P1;HPM_P2
2023/09/08 00:00:29;;;;;;;6.60;5.00;;;;;;;17.21;79.20;101509.56;108892;278;38929;-73
2023/09/08 00:03:23;;;;;;;7.40;4.80;;;;;;;17.20;79.17;101502.19;108922;278;38420;-73
2023/09/08 00:05:57;;;;;;;6.50;5.00;;;;;;;17.19;78.98;101501.16;108927;278;39979;-74
2023/09/08 00:08:32;;;;;;;7.00;5.10;;;;;;;17.18;79.02;101499.65;108893;278;38606;-75
2023/09/08 00:11:07;;;;;;;7.30;4.90;;;;;;;17.18;79.04;101499.48;108906;278;39379;-75
2023/09/08 00:13:41;;;;;;;5.40;4.70;;;;;;;17.14;78.82;101497.88;108953;276;38335;-75
2023/09/08 00:16:15;;;;;;;5.60;5.00;;;;;;;17.11;78.92;101496.64;108888;278;38192;-73
2023/09/08 00:18:50;;;;;;;5.40;4.90;;;;;;;17.08;78.97;101494.64;108935;278;38233;-71
2023/09/08 00:21:24;;;;;;;8.20;5.40;;;;;;;17.05;79.09;101491.08;108970;278;38956;-74
2023/09/08 00:23:58;;;;;;;5.70;4.60;;;;;;;17.02;78.99;101489.11;108916;278;39329;-74
2023/09/08 00:26:33;;;;;;;7.40;5.30;;;;;;;16.99;79.20;101485.56;108845;278;40470;-73
2023/09/08 00:29:07;;;;;;;7.50;5.00;;;;;;;16.98;79.40;101490.71;108939;278;38429;-75
2023/09/08 00:31:41;;;;;;;7.70;5.40;;;;;;;16.97;79.25;101484.41;108930;278;38494;-73
2023/09/08 00:34:15;;;;;;;7.20;5.10;;;;;;;16.97;79.45;101490.22;108861;278;38154;-73
2023/09/08 00:36:49;;;;;;;6.60;4.80;;;;;;;16.97;79.45;101490.20;108914;278;38161;-73
2023/09/08 00:39:23;;;;;;;6.50;5.40;;;;;;;16.97;79.46;101489.52;108870;278;38299;-75
2023/09/08 00:41:57;;;;;;;7.90;5.80;;;;;;;16.96;79.53;101491.48;108939;278;38439;-75
2023/09/08 00:44:31;;;;;;;6.50;5.30;;;;;;;16.95;79.47;101492.61;108924;278;38477;-75
2023/09/08 00:47:07;;;;;;;8.00;5.50;;;;;;;16.94;79.55;101492.48;108937;278;38331;-72
2023/09/08 00:49:41;;;;;;;6.40;5.20;;;;;;;16.92;79.38;101490.98;108923;278;39226;-72
2023/09/08 00:52:15;;;;;;;5.90;5.30;;;;;;;16.87;79.46;101496.34;108936;278;39065;-72
2023/09/08 00:54:49;;;;;;;8.00;4.90;;;;;;;16.81;79.55;101493.65;108896;278;39518;-71
2023/09/08 00:57:23;;;;;;;7.10;5.40;;;;;;;16.77;79.70;101496.45;108901;278;38609;-72
2023/09/08 00:59:57;;;;;;;7.90;5.40;;;;;;;16.74;79.83;101494.11;108916;278;38471;-72
2023/09/08 01:02:32;;;;;;;8.80;5.30;;;;;;;16.72;79.93;101489.10;108893;278;38707;-73
2023/09/08 01:05:07;;;;;;;6.40;5.40;;;;;;;16.69;79.98;101491.34;108956;278;38459;-73
2023/09/08 01:07:41;;;;;;;5.40;4.80;;;;;;;16.66;79.99;101490.41;108901;278;38275;-72
2023/09/08 01:10:15;;;;;;;5.20;4.70;;;;;;;16.61;80.03;101480.75;108928;278;38222;-72
2023/09/08 01:12:52;;;;;;;7.40;5.50;;;;;;;16.60;80.24;101485.73;108912;278;39498;-73
2023/09/08 01:15:26;;;;;;;5.60;5.10;;;;;;;16.62;80.47;101484.05;108880;278;38251;-73
2023/09/08 01:18:00;;;;;;;7.10;6.00;;;;;;;16.62;80.54;101482.46;108882;278;39552;-73
2023/09/08 01:20:47;;;;;;;9.80;6.00;;;;;;;16.62;80.74;101484.61;108929;278;40094;-72
2023/09/08 01:23:29;;;;;;;8.20;5.80;;;;;;;16.60;80.88;101476.75;108939;278;38240;-72
2023/09/08 01:26:05;;;;;;;8.10;5.60;;;;;;;16.58;80.82;101472.95;108805;278;174989;-72
2023/09/08 01:28:39;;;;;;;7.50;5.60;;;;;;;16.57;80.91;101472.84;108854;278;38177;-72
2023/09/08 01:31:13;;;;;;;6.80;5.60;;;;;;;16.57;81.09;101472.66;108959;278;38776;-73
2023/09/08 01:33:47;;;;;;;7.10;5.60;;;;;;;16.58;81.06;101468.42;108928;278;38589;-73
2023/09/08 01:36:22;;;;;;;8.10;5.90;;;;;;;16.54;80.94;101469.80;108884;278;38577;-73
2023/09/08 01:38:56;;;;;;;8.00;5.40;;;;;;;16.52;81.05;101472.54;108912;278;38173;-75
2023/09/08 01:41:31;;;;;;;6.70;5.50;;;;;;;16.53;81.35;101470.21;108892;278;38283;-73
2023/09/08 01:44:07;;;;;;;7.90;6.20;;;;;;;16.54;81.34;101470.52;108862;278;40201;-73
2023/09/08 01:46:42;;;;;;;7.10;6.20;;;;;;;16.53;81.40;101467.02;108830;278;39092;-72
2023/09/08 01:49:16;;;;;;;7.70;5.60;;;;;;;16.50;81.35;101468.73;108905;278;38506;-72
2023/09/08 01:51:50;;;;;;;6.70;5.30;;;;;;;16.49;81.49;101470.00;108972;278;39095;-72
2023/09/08 01:54:24;;;;;;;8.60;5.70;;;;;;;16.50;81.63;101467.89;108926;278;38166;-72
2023/09/08 01:56:58;;;;;;;7.80;5.90;;;;;;;16.49;81.56;101462.45;108896;278;38432;-72
2023/09/08 01:59:33;;;;;;;7.80;6.00;;;;;;;16.49;81.64;101460.68;108930;278;38455;-72
2023/09/08 02:02:08;;;;;;;7.20;6.30;;;;;;;16.49;81.66;101458.59;108916;278;39232;-73
2023/09/08 02:04:42;;;;;;;9.00;5.70;;;;;;;16.49;81.84;101460.70;108943;278;39450;-73
2023/09/08 02:07:15;;;;;;;8.10;6.10;;;;;;;16.49;81.85;101456.60;108869;278;39455;-72
2023/09/08 02:09:49;;;;;;;6.80;5.60;;;;;;;16.51;82.04;101459.89;108890;278;38484;-73
2023/09/08 02:12:23;;;;;;;6.60;5.90;;;;;;;16.52;81.76;101460.77;108937;278;38496;-75
2023/09/08 02:14:57;;;;;;;7.20;6.20;;;;;;;16.48;81.75;101460.55;108903;278;38348;-75
2023/09/08 02:17:31;;;;;;;7.10;5.70;;;;;;;16.45;81.73;101460.16;108931;278;39351;-70
2023/09/08 02:20:07;;;;;;;6.80;5.80;;;;;;;16.42;81.75;101467.34;108910;275;38670;-71
2023/09/08 02:22:41;;;;;;;6.80;6.00;;;;;;;16.39;81.98;101462.02;108932;278;39595;-74
2023/09/08 02:25:15;;;;;;;5.90;5.30;;;;;;;16.36;81.79;101460.58;108930;278;39610;-72
2023/09/08 02:27:49;;;;;;;6.80;5.70;;;;;;;16.33;82.03;101457.02;108879;278;38855;-74
2023/09/08 02:30:23;;;;;;;7.60;5.80;;;;;;;16.32;82.29;101457.98;108938;278;38763;-72
2023/09/08 02:33:02;;;;;;;7.90;5.80;;;;;;;16.32;82.42;101457.25;108885;278;38152;-72
2023/09/08 02:35:47;;;;;;;8.20;5.80;;;;;;;16.32;82.51;101456.16;108948;278;38146;-73
2023/09/08 02:38:21;;;;;;;7.80;5.80;;;;;;;16.34;82.65;101452.38;108896;278;38285;-71
2023/09/08 02:40:55;;;;;;;7.50;6.10;;;;;;;16.35;82.76;101449.52;108927;278;39808;-72
2023/09/08 02:43:29;;;;;;;8.30;6.50;;;;;;;16.35;82.73;101446.17;108923;278;38214;-74
2023/09/08 02:46:03;;;;;;;7.10;6.30;;;;;;;16.37;82.76;101442.75;108914;278;38644;-73
2023/09/08 02:48:37;;;;;;;8.50;5.90;;;;;;;16.39;82.96;101438.05;108929;278;38215;-72
2023/09/08 02:51:12;;;;;;;6.30;5.70;;;;;;;16.40;82.89;101439.23;108910;278;39729;-72
2023/09/08 02:53:46;;;;;;;9.20;7.00;;;;;;;16.39;82.94;101439.30;108939;278;38273;-73
2023/09/08 02:56:20;;;;;;;7.00;6.20;;;;;;;16.38;82.78;101440.05;108885;278;38568;-75
2023/09/08 02:58:55;;;;;;;8.60;6.70;;;;;;;16.40;83.20;101436.44;108899;278;39363;-75
2023/09/08 03:01:29;;;;;;;8.60;5.90;;;;;;;16.41;83.05;101434.80;108947;278;38293;-74
2023/09/08 03:04:05;;;;;;;7.00;6.30;;;;;;;16.43;83.17;101437.52;108914;278;39455;-75
2023/09/08 03:06:40;;;;;;;7.90;7.00;;;;;;;16.45;83.36;101438.48;108776;278;175776;-73
2023/09/08 03:09:14;;;;;;;10.50;7.10;;;;;;;16.47;83.51;101430.65;108788;278;174988;-71
2023/09/08 03:11:48;;;;;;;10.70;6.10;;;;;;;16.49;83.51;101429.15;108899;278;39640;-72
2023/09/08 03:14:23;;;;;;;7.90;6.10;;;;;;;16.51;83.42;101424.14;108926;278;38867;-72
2023/09/08 03:16:57;;;;;;;6.90;6.10;;;;;;;16.54;83.25;101423.28;108891;278;38764;-73
2023/09/08 03:19:31;;;;;;;10.60;7.20;;;;;;;16.56;83.30;101418.98;108880;279;38852;-71
2023/09/08 03:22:06;;;;;;;8.10;6.40;;;;;;;16.55;83.30;101415.16;108898;278;38593;-72
2023/09/08 03:24:40;;;;;;;8.00;5.70;;;;;;;16.51;83.11;101409.85;108887;278;38975;-72
2023/09/08 03:27:15;;;;;;;7.80;6.00;;;;;;;16.48;83.10;101414.77;108927;278;38425;-71
2023/09/08 03:29:50;;;;;;;7.40;6.30;;;;;;;16.44;83.10;101416.36;108827;278;174969;-71
2023/09/08 03:32:25;;;;;;;8.50;6.70;;;;;;;16.42;83.01;101415.20;108932;278;38225;-73
2023/09/08 03:34:59;;;;;;;14.50;7.20;;;;;;;16.41;82.95;101419.16;108886;278;40576;-74
2023/09/08 03:37:33;;;;;;;8.80;7.00;;;;;;;16.38;83.01;101413.96;108933;278;38180;-72
2023/09/08 03:40:10;;;;;;;8.60;6.70;;;;;;;16.36;83.16;101414.97;108933;278;38134;-72
2023/09/08 03:42:44;;;;;;;9.70;6.30;;;;;;;16.31;82.98;101416.09;108924;278;39656;-75
2023/09/08 03:45:18;;;;;;;8.20;6.60;;;;;;;16.27;83.22;101421.54;108878;278;39495;-73
2023/09/08 03:47:52;;;;;;;10.40;7.30;;;;;;;16.25;83.05;101421.63;108911;277;38364;-73
2023/09/08 03:50:26;;;;;;;8.60;6.80;;;;;;;16.20;82.93;101420.98;108896;278;38948;-72
2023/09/08 03:53:01;;;;;;;8.60;7.70;;;;;;;16.16;82.80;101422.39;108905;278;39953;-71
2023/09/08 03:55:37;;;;;;;7.30;6.60;;;;;;;16.11;82.80;101426.15;108918;278;39169;-72
2023/09/08 03:58:12;;;;;;;7.70;6.90;;;;;;;16.03;82.81;101423.66;108979;278;38439;-73
2023/09/08 04:00:46;;;;;;;7.70;6.80;;;;;;;15.97;83.05;101425.84;108943;278;39689;-73
2023/09/08 04:03:20;;;;;;;8.00;6.60;;;;;;;15.93;83.05;101420.58;108931;278;39261;-75
2023/09/08 04:05:54;;;;;;;8.20;6.60;;;;;;;15.89;83.12;101424.81;108892;278;39313;-73
2023/09/08 04:08:29;;;;;;;8.90;6.90;;;;;;;15.84;83.10;101426.23;108889;278;38775;-73
2023/09/08 04:11:03;;;;;;;9.50;6.40;;;;;;;15.77;83.31;101420.23;108906;278;39350;-73
2023/09/08 04:13:37;;;;;;;8.10;6.40;;;;;;;15.73;83.36;101421.97;108879;278;38093;-71
2023/09/08 04:16:11;;;;;;;7.70;6.90;;;;;;;15.72;83.55;101421.80;108919;278;40066;-77
2023/09/08 04:18:45;;;;;;;10.10;7.70;;;;;;;15.72;83.65;101421.13;108952;278;38346;-75
2023/09/08 04:21:19;;;;;;;7.70;6.80;;;;;;;15.72;83.91;101418.65;108911;278;38559;-73
2023/09/08 04:23:54;;;;;;;9.50;6.80;;;;;;;15.69;83.68;101415.79;108865;278;38614;-73
2023/09/08 04:26:28;;;;;;;8.70;6.90;;;;;;;15.67;83.90;101414.46;108830;278;175030;-73
2023/09/08 04:29:02;;;;;;;9.60;7.40;;;;;;;15.69;84.32;101417.05;108901;278;38345;-73
2023/09/08 04:31:37;;;;;;;7.60;6.80;;;;;;;15.70;84.29;101417.88;108915;278;38242;-71
2023/09/08 04:34:11;;;;;;;8.80;7.30;;;;;;;15.67;84.03;101420.63;108953;278;38994;-71
2023/09/08 04:36:45;;;;;;;9.70;6.90;;;;;;;15.64;84.06;101421.81;108926;278;38752;-73
2023/09/08 04:39:19;;;;;;;7.50;6.30;;;;;;;15.62;84.41;101419.41;108890;278;38733;-73
2023/09/08 04:41:54;;;;;;;9.30;6.80;;;;;;;15.61;84.39;101416.99;108909;278;38651;-73
2023/09/08 04:44:28;;;;;;;10.10;7.50;;;;;;;15.61;84.52;101414.70;108904;278;39341;-72
2023/09/08 04:47:02;;;;;;;8.80;7.10;;;;;;;15.64;84.94;101414.60;108912;278;38335;-75
2023/09/08 04:49:36;;;;;;;11.00;7.80;;;;;;;15.69;84.90;101415.61;108870;278;38458;-72
2023/09/08 04:52:14;;;;;;;7.30;6.50;;;;;;;15.71;85.00;101414.48;108949;278;38168;-71
2023/09/08 04:54:49;;;;;;;8.10;6.60;;;;;;;15.73;84.99;101412.27;108777;278;174995;-73
2023/09/08 04:57:28;;;;;;;7.80;6.90;;;;;;;15.79;85.38;101410.99;108815;278;188469;-72
2023/09/08 05:00:03;;;;;;;12.70;7.90;;;;;;;15.85;85.43;101408.41;108907;278;39202;-71
2023/09/08 05:02:37;;;;;;;10.20;7.60;;;;;;;15.91;85.56;101413.44;108950;278;38193;-75
2023/09/08 05:05:14;;;;;;;9.50;6.80;;;;;;;15.98;85.80;101414.02;108905;278;38472;-73
2023/09/08 05:07:48;;;;;;;9.80;6.80;;;;;;;16.07;86.26;101411.86;108893;278;39530;-75
2023/09/08 05:10:23;;;;;;;10.30;7.30;;;;;;;16.20;86.52;101403.88;108930;278;39982;-73
2023/09/08 05:12:57;;;;;;;10.70;8.00;;;;;;;16.32;86.38;101404.39;108938;278;39439;-71
2023/09/08 05:15:31;;;;;;;8.90;7.90;;;;;;;16.44;86.38;101401.03;108946;278;38493;-73
2023/09/08 05:18:05;;;;;;;9.90;7.50;;;;;;;16.57;86.60;101402.23;108869;278;38183;-73
2023/09/08 05:20:39;;;;;;;9.60;7.40;;;;;;;16.69;86.67;101404.63;108932;278;38170;-73
2023/09/08 05:23:13;;;;;;;10.90;7.60;;;;;;;16.89;87.29;101402.30;108890;278;38934;-73
2023/09/08 05:25:48;;;;;;;10.20;7.40;;;;;;;17.21;88.37;101398.47;108914;278;38216;-74
2023/09/08 05:28:22;;;;;;;8.50;7.20;;;;;;;17.89;91.29;101398.86;108901;278;38325;-73
2023/09/08 05:30:56;;;;;;;8.40;7.10;;;;;;;18.97;91.45;101396.02;108902;278;38778;-73
2023/09/08 05:33:31;;;;;;;10.00;7.90;;;;;;;19.97;87.12;101395.34;108912;278;39346;-71
2023/09/08 05:36:05;;;;;;;11.10;7.30;;;;;;;20.77;83.45;101399.89;108905;278;38771;-72
2023/09/08 05:38:39;;;;;;;12.10;7.60;;;;;;;21.42;79.58;101394.21;108924;278;38297;-72
2023/09/08 05:41:13;;;;;;;8.40;7.00;;;;;;;21.60;75.99;101394.98;108933;278;38371;-72
2023/09/08 05:43:47;;;;;;;7.80;6.80;;;;;;;21.49;74.17;101396.46;108860;279;38322;-72
2023/09/08 05:46:21;;;;;;;10.00;7.70;;;;;;;21.35;73.09;101395.75;108909;279;38268;-74
2023/09/08 05:48:55;;;;;;;9.90;7.50;;;;;;;21.20;72.31;101398.15;108861;279;38516;-74
2023/09/08 05:51:30;;;;;;;8.90;8.00;;;;;;;21.03;72.33;101401.94;108896;279;38835;-74
2023/09/08 05:54:04;;;;;;;10.30;7.70;;;;;;;20.91;72.42;101408.97;108852;279;38177;-75
2023/09/08 05:56:39;;;;;;;9.80;7.30;;;;;;;20.93;73.50;101408.08;108927;279;39793;-74
2023/09/08 05:59:13;;;;;;;11.80;7.60;;;;;;;21.54;76.00;101402.84;108888;279;39813;-74
2023/09/08 06:01:47;;;;;;;9.60;7.40;;;;;;;22.51;75.02;101401.94;108887;279;38471;-74
2023/09/08 06:04:21;;;;;;;10.10;7.50;;;;;;;23.40;72.18;101399.14;108840;279;38886;-73
2023/09/08 06:06:55;;;;;;;7.40;6.60;;;;;;;24.21;68.71;101396.48;108904;279;38269;-76
2023/09/08 06:09:32;;;;;;;9.60;6.90;;;;;;;24.93;65.11;101399.25;108887;279;38285;-74
2023/09/08 06:12:08;;;;;;;8.70;7.00;;;;;;;25.43;62.73;101398.96;108900;279;38383;-74
2023/09/08 06:14:43;;;;;;;8.90;6.70;;;;;;;25.51;60.89;101397.13;108980;279;38299;-76
2023/09/08 06:17:17;;;;;;;7.80;6.50;;;;;;;25.47;59.11;101398.66;108865;279;39353;-75
2023/09/08 06:19:52;;;;;;;7.80;6.70;;;;;;;25.31;58.36;101393.40;108891;279;38504;-74
2023/09/08 06:22:26;;;;;;;9.30;7.20;;;;;;;25.06;58.47;101396.95;108874;279;39352;-75
2023/09/08 06:25:00;;;;;;;7.50;6.40;;;;;;;24.79;58.68;101396.63;108788;280;176950;-74
2023/09/08 06:27:35;;;;;;;7.60;6.50;;;;;;;24.53;58.80;101390.55;108954;279;38136;-73
2023/09/08 06:30:17;;;;;;;9.50;7.40;;;;;;;24.28;58.94;101389.15;108862;279;39566;-72
2023/09/08 06:32:52;;;;;;;9.20;6.90;;;;;;;24.02;59.06;101391.36;108918;279;38155;-74
2023/09/08 06:35:26;;;;;;;10.50;7.10;;;;;;;23.83;59.27;101390.92;108886;279;38331;-75
2023/09/08 06:38:00;;;;;;;8.20;7.00;;;;;;;23.72;59.82;101388.55;108887;279;39424;-74
2023/09/08 06:40:35;;;;;;;10.40;7.20;;;;;;;23.62;60.18;101385.16;108674;280;174627;-74
2023/09/08 06:43:09;;;;;;;8.40;7.30;;;;;;;23.49;59.84;101391.17;108852;278;38143;-72
2023/09/08 06:45:43;;;;;;;10.40;7.50;;;;;;;23.37;60.70;101395.09;108940;278;38459;-74
2023/09/08 06:48:17;;;;;;;12.40;7.50;;;;;;;23.28;60.57;101391.14;108910;278;38382;-73
2023/09/08 06:50:54;;;;;;;12.10;7.60;;;;;;;23.23;61.15;101392.82;108921;278;38255;-73
2023/09/08 06:53:27;;;;;;;14.80;7.60;;;;;;;23.20;61.41;101389.83;108885;278;38353;-73
2023/09/08 06:56:02;;;;;;;8.30;7.10;;;;;;;23.21;61.61;101395.98;108501;278;540376;-73
2023/09/08 06:58:35;;;;;;;10.30;7.10;;;;;;;23.26;61.69;101393.13;108899;278;40020;-73
2023/09/08 07:01:10;;;;;;;9.80;7.30;;;;;;;23.27;61.56;101395.17;108959;278;39267;-73
2023/09/08 07:03:44;;;;;;;10.20;7.40;;;;;;;23.23;60.99;101392.09;108894;278;39700;-73
2023/09/08 07:06:18;;;;;;;9.40;8.10;;;;;;;23.23;61.17;101387.23;108941;278;38697;-73
2023/09/08 07:08:52;;;;;;;11.00;7.40;;;;;;;23.26;61.24;101384.02;108891;278;38280;-73
2023/09/08 07:11:26;;;;;;;13.00;7.20;;;;;;;23.31;61.57;101384.20;108926;278;39693;-73
2023/09/08 07:14:00;;;;;;;8.60;7.30;;;;;;;23.40;61.85;101383.09;108904;278;38253;-73
2023/09/08 07:16:34;;;;;;;12.30;6.40;;;;;;;23.49;61.72;101385.30;108813;279;174631;-73
2023/09/08 07:19:09;;;;;;;10.80;7.10;;;;;;;23.57;61.63;101379.91;108898;278;38430;-73
2023/09/08 07:21:43;;;;;;;9.20;6.60;;;;;;;23.63;61.47;101380.34;108862;279;39597;-73
2023/09/08 07:24:17;;;;;;;9.20;7.00;;;;;;;23.67;61.73;101380.03;108938;278;39411;-74
2023/09/08 07:26:51;;;;;;;9.90;7.00;;;;;;;23.70;61.13;101385.36;108951;278;38296;-72
2023/09/08 07:29:26;;;;;;;11.20;6.40;;;;;;;23.73;61.62;101387.39;108957;278;38911;-72
2023/09/08 07:32:01;;;;;;;11.10;7.30;;;;;;;23.80;61.74;101387.98;108917;279;39640;-73
2023/09/08 07:34:35;;;;;;;9.90;6.80;;;;;;;23.89;61.72;101387.59;108897;278;38223;-72
2023/09/08 07:37:09;;;;;;;10.40;7.10;;;;;;;23.99;61.28;101386.65;108931;279;38459;-73
2023/09/08 07:39:43;;;;;;;11.20;6.30;;;;;;;24.05;60.97;101390.06;108932;279;38924;-73
2023/09/08 07:42:18;;;;;;;14.40;7.00;;;;;;;24.08;60.45;101389.45;108929;279;39493;-72
2023/09/08 07:44:51;;;;;;;8.70;6.10;;;;;;;24.15;60.65;101389.79;108913;278;39297;-72
2023/09/08 07:47:27;;;;;;;11.30;6.30;;;;;;;24.21;60.60;101387.24;108853;279;38816;-73
2023/09/08 07:50:21;;;;;;;10.50;8.00;;;;;;;24.23;60.44;101387.43;108922;278;38855;-73
2023/09/08 07:52:57;;;;;;;11.40;7.30;;;;;;;24.28;60.24;101382.93;108883;279;38134;-72
2023/09/08 07:55:31;;;;;;;9.60;7.30;;;;;;;24.35;59.80;101382.14;108914;278;38317;-73
2023/09/08 07:58:05;;;;;;;11.50;7.20;;;;;;;24.33;58.59;101383.19;108928;278;38204;-73
2023/09/08 08:00:39;;;;;;;14.20;7.20;;;;;;;24.35;59.67;101385.21;108878;278;38630;-73
2023/09/08 08:03:13;;;;;;;12.60;7.70;;;;;;;24.67;62.11;101383.55;108902;278;38727;-73
2023/09/08 08:05:47;;;;;;;10.20;6.80;;;;;;;25.07;60.58;101382.19;108907;278;38622;-74
2023/09/08 08:08:22;;;;;;;10.50;7.00;;;;;;;25.62;60.08;101381.36;108932;278;39586;-75
2023/09/08 08:10:56;;;;;;;10.00;6.70;;;;;;;26.17;58.70;101376.78;108933;278;38425;-75
2023/09/08 08:13:31;;;;;;;10.00;6.70;;;;;;;26.90;57.87;101376.65;108933;278;38391;-75
2023/09/08 08:16:06;;;;;;;9.60;6.40;;;;;;;27.70;55.49;101370.50;108954;278;38409;-74
2023/09/08 08:18:41;;;;;;;12.60;6.60;;;;;;;28.45;53.54;101372.67;108903;278;38751;-74
2023/09/08 08:21:15;;;;;;;12.30;7.00;;;;;;;29.22;50.81;101373.63;108907;278;38533;-75
2023/09/08 08:23:49;;;;;;;11.20;6.10;;;;;;;29.76;47.34;101374.09;108906;278;39632;-73
2023/09/08 08:26:27;;;;;;;11.80;7.00;;;;;;;30.14;46.63;101374.77;108917;278;38294;-74
2023/09/08 08:29:01;;;;;;;7.40;6.30;;;;;;;30.68;45.70;101377.71;108917;278;39451;-76
2023/09/08 08:31:35;;;;;;;7.30;5.90;;;;;;;31.19;44.37;101379.34;108980;278;38148;-75
2023/09/08 08:34:10;;;;;;;8.60;5.20;;;;;;;31.57;43.47;101380.77;108916;278;38805;-74
2023/09/08 08:36:44;;;;;;;7.90;5.70;;;;;;;31.79;43.05;101383.89;108284;278;883850;-74
2023/09/08 08:39:18;;;;;;;6.60;5.10;;;;;;;31.99;42.50;101375.73;108944;278;38317;-74
2023/09/08 08:41:52;;;;;;;7.60;5.90;;;;;;;32.22;42.28;101377.18;108916;278;38429;-76
2023/09/08 08:44:26;;;;;;;8.00;5.40;;;;;;;32.28;40.31;101373.39;108840;278;171350;-77
2023/09/08 08:47:01;;;;;;;9.20;5.80;;;;;;;32.26;39.53;101376.29;108968;278;38239;-76
2023/09/08 08:49:36;;;;;;;7.30;5.20;;;;;;;32.25;40.13;101372.06;108913;278;39387;-77
2023/09/08 08:52:10;;;;;;;8.00;5.30;;;;;;;32.60;40.45;101368.23;108970;278;38355;-73
2023/09/08 08:54:45;;;;;;;7.80;5.50;;;;;;;32.90;39.35;101371.61;108916;278;38413;-73
2023/09/08 08:57:20;;;;;;;8.70;5.50;;;;;;;33.10;38.99;101372.08;108983;278;38739;-75
2023/09/08 08:59:54;;;;;;;6.00;5.30;;;;;;;33.22;38.78;101365.80;108929;278;39380;-73
2023/09/08 09:02:28;;;;;;;7.80;5.60;;;;;;;33.16;38.17;101368.98;108973;278;39227;-74
2023/09/08 09:05:02;;;;;;;9.90;5.70;;;;;;;33.00;37.75;101364.77;108922;278;39057;-74
2023/09/08 09:07:37;;;;;;;9.60;5.80;;;;;;;32.77;37.51;101363.65;108933;278;38310;-74
2023/09/08 09:10:15;;;;;;;8.30;5.90;;;;;;;32.51;37.49;101360.13;108936;275;38569;-76
2023/09/08 09:12:49;;;;;;;9.30;5.50;;;;;;;32.15;37.91;101358.77;108899;278;39633;-76
2023/09/08 09:15:32;;;;;;;6.50;5.90;;;;;;;32.03;39.19;101355.73;108924;278;38416;-74
2023/09/08 09:18:10;;;;;;;8.60;5.20;;;;;;;32.12;38.72;101353.33;108900;278;39357;-74
2023/09/08 09:20:44;;;;;;;7.70;5.10;;;;;;;32.14;39.77;101350.79;108954;278;38546;-75
2023/09/08 09:23:20;;;;;;;8.40;5.50;;;;;;;32.38;40.47;101346.14;108870;278;38920;-74
2023/09/08 09:25:55;;;;;;;8.30;5.40;;;;;;;32.66;39.17;101347.42;108937;278;38359;-74
2023/09/08 09:28:30;;;;;;;6.00;5.30;;;;;;;33.03;38.36;101344.29;108889;278;38306;-74
2023/09/08 09:31:05;;;;;;;9.20;5.80;;;;;;;33.40;38.24;101343.88;108947;278;38205;-74
2023/09/08 09:33:40;;;;;;;7.10;4.90;;;;;;;33.83;38.02;101340.70;108254;278;883748;-74
2023/09/08 09:36:18;;;;;;;6.40;5.50;;;;;;;34.15;37.70;101340.09;108862;278;38544;-74
2023/09/08 09:38:52;;;;;;;7.60;5.30;;;;;;;34.30;37.00;101338.73;108898;278;38178;-74
2023/09/08 09:41:27;;;;;;;6.70;5.30;;;;;;;34.22;35.10;101336.70;108903;278;38467;-75
2023/09/08 09:44:01;;;;;;;7.30;5.90;;;;;;;34.00;35.75;101336.91;108910;278;38340;-75
2023/09/08 09:46:35;;;;;;;9.50;5.60;;;;;;;33.74;34.67;101337.32;108913;278;38283;-75
2023/09/08 09:49:09;;;;;;;7.30;5.50;;;;;;;33.21;34.52;101337.70;108902;278;38582;-74
2023/09/08 09:51:47;;;;;;;8.00;5.70;;;;;;;32.66;34.52;101334.20;108940;278;38514;-74
2023/09/08 09:54:21;;;;;;;9.00;5.50;;;;;;;32.29;36.30;101326.20;108911;278;38405;-74
2023/09/08 09:56:55;;;;;;;6.50;4.50;;;;;;;32.00;37.31;101326.35;108909;278;38336;-74
2023/09/08 09:59:30;;;;;;;6.20;4.50;;;;;;;31.76;37.83;101321.99;108918;278;39100;-74
2023/09/08 10:02:04;;;;;;;8.40;4.20;;;;;;;31.54;37.72;101322.06;108981;278;38934;-73
2023/09/08 10:04:40;;;;;;;5.40;4.80;;;;;;;31.29;37.89;101322.05;108941;278;39279;-73
2023/09/08 10:07:14;;;;;;;6.80;5.10;;;;;;;30.82;37.00;101322.90;108906;278;38882;-74
2023/09/08 10:09:49;;;;;;;5.60;4.70;;;;;;;30.45;38.49;101317.83;108881;278;39700;-74
2023/09/08 10:12:24;;;;;;;7.30;4.50;;;;;;;30.37;39.47;101316.07;108907;278;38684;-74
2023/09/08 10:14:58;;;;;;;6.80;4.80;;;;;;;30.36;40.55;101315.05;108904;278;38239;-74
2023/09/08 10:17:33;;;;;;;5.20;4.70;;;;;;;30.29;39.17;101314.09;108954;278;38209;-75
2023/09/08 10:20:11;;;;;;;6.00;4.50;;;;;;;30.17;38.50;101313.61;108898;278;39146;-77
2023/09/08 10:22:46;;;;;;;7.00;4.80;;;;;;;29.88;39.04;101314.02;108265;278;886986;-75
2023/09/08 10:25:20;;;;;;;4.70;4.30;;;;;;;29.59;39.03;101312.37;108837;278;189064;-75
2023/09/08 10:27:54;;;;;;;4.70;4.20;;;;;;;29.41;39.52;101309.88;108936;278;38134;-76
2023/09/08 10:30:28;;;;;;;4.80;4.30;;;;;;;29.33;40.15;101309.45;108910;278;39057;-74
2023/09/08 10:33:06;;;;;;;7.10;4.50;;;;;;;29.16;40.03;101313.71;108828;278;39339;-75
2023/09/08 10:35:40;;;;;;;5.70;4.80;;;;;;;29.06;40.48;101316.02;108919;278;38158;-74
2023/09/08 10:38:32;;;;;;;5.80;4.80;;;;;;;29.03;39.73;101311.07;108924;278;38229;-73
2023/09/08 10:41:36;;;;;;;6.80;4.90;;;;;;;28.89;39.79;101308.77;108937;278;38140;-73
2023/09/08 10:44:14;;;;;;;7.00;5.30;;;;;;;28.93;40.18;101304.73;108812;278;171677;-73
2023/09/08 10:46:48;;;;;;;5.60;4.80;;;;;;;29.06;39.97;101301.42;108928;278;38180;-76
2023/09/08 10:49:22;;;;;;;5.80;4.80;;;;;;;29.15;40.23;101299.41;108752;278;174353;-76
2023/09/08 10:51:58;;;;;;;5.20;4.60;;;;;;;29.22;40.17;101292.53;108938;278;38183;-75
2023/09/08 10:54:48;;;;;;;5.60;4.80;;;;;;;29.28;39.67;101290.20;108915;278;38279;-75
2023/09/08 10:57:24;;;;;;;5.30;4.80;;;;;;;29.24;39.75;101285.16;108913;278;38293;-74
2023/09/08 11:00:01;;;;;;;4.70;4.20;;;;;;;29.19;40.07;101282.66;108897;278;38728;-74
2023/09/08 11:02:41;;;;;;;4.60;4.20;;;;;;;29.14;40.06;101283.58;108996;278;38380;-75
2023/09/08 11:05:16;;;;;;;4.40;4.00;;;;;;;29.08;40.46;101281.42;108937;278;38212;-75
2023/09/08 11:07:52;;;;;;;5.60;4.40;;;;;;;29.00;40.56;101275.41;108265;279;889180;-76
2023/09/08 11:10:26;;;;;;;5.90;4.50;;;;;;;28.96;40.85;101275.84;108903;279;38173;-75
2023/09/08 11:13:03;;;;;;;5.50;4.90;;;;;;;29.00;40.82;101276.21;108888;279;38291;-75
2023/09/08 11:15:37;;;;;;;5.10;4.70;;;;;;;29.05;40.07;101276.52;108900;278;39146;-75
2023/09/08 11:18:12;;;;;;;4.70;4.20;;;;;;;29.06;40.50;101273.64;108881;279;39577;-74
2023/09/08 11:20:46;;;;;;;5.50;4.50;;;;;;;28.95;40.19;101272.02;108946;279;38170;-74
2023/09/08 11:23:20;;;;;;;6.20;4.30;;;;;;;28.80;40.37;101267.20;108920;279;39544;-74
2023/09/08 11:25:54;;;;;;;7.10;4.80;;;;;;;28.60;40.21;101266.01;108882;278;39891;-74
2023/09/08 11:28:28;;;;;;;5.20;4.70;;;;;;;28.47;40.08;101262.30;108853;279;38632;-73
2023/09/08 11:31:03;;;;;;;4.40;4.00;;;;;;;28.37;39.85;101261.85;108881;279;39331;-74
2023/09/08 11:33:40;;;;;;;5.10;4.70;;;;;;;28.34;40.55;101262.88;108890;278;38363;-75
2023/09/08 11:36:20;;;;;;;5.30;4.60;;;;;;;28.42;41.41;101260.64;108918;278;39531;-74
2023/09/08 11:38:54;;;;;;;7.00;4.60;;;;;;;28.45;40.53;101254.74;108890;278;38728;-74
2023/09/08 11:41:30;;;;;;;6.00;4.50;;;;;;;28.41;40.40;101251.58;108913;278;38846;-74
2023/09/08 11:44:05;;;;;;;4.70;4.10;;;;;;;28.42;40.93;101254.20;108938;278;38428;-74
2023/09/08 11:46:39;;;;;;;4.70;4.20;;;;;;;28.46;41.52;101251.22;108914;278;38317;-74
2023/09/08 11:49:14;;;;;;;7.20;4.30;;;;;;;28.51;41.83;101250.33;108871;278;39361;-73
2023/09/08 11:51:49;;;;;;;4.40;3.90;;;;;;;28.50;41.29;101248.54;108921;278;39528;-74
2023/09/08 11:54:23;;;;;;;5.10;4.40;;;;;;;28.51;41.70;101247.30;108849;278;39563;-76
2023/09/08 11:56:58;;;;;;;5.10;4.60;;;;;;;28.54;41.45;101249.32;108935;278;38218;-76
2023/09/08 11:59:33;;;;;;;5.80;4.70;;;;;;;28.56;40.90;101248.48;108278;278;890225;-75